createdAt,value
2018-04-08T00:00:18.756Z,950.78
2018-04-08T00:01:18.743Z,950.81
2018-04-08T00:02:18.728Z,950.81
2018-04-08T00:03:18.717Z,950.83
2018-04-08T00:04:18.707Z,950.81
2018-04-08T00:05:18.696Z,950.79
2018-04-08T00:06:18.684Z,950.76
2018-04-08T00:07:18.677Z,950.76
2018-04-08T00:08:18.662Z,950.78
2018-04-08T00:09:18.652Z,950.68
2018-04-08T00:10:18.640Z,950.75
2018-04-08T00:11:18.630Z,950.76
2018-04-08T00:12:18.619Z,950.77
2018-04-08T00:13:18.608Z,950.7
2018-04-08T00:14:18.598Z,950.66
2018-04-08T00:15:18.586Z,950.73
2018-04-08T00:16:18.575Z,950.68
2018-04-08T00:17:18.562Z,950.66
2018-04-08T00:18:18.553Z,950.66
2018-04-08T00:19:18.541Z,950.64
2018-04-08T00:20:18.529Z,950.67
2018-04-08T00:21:18.521Z,950.66
2018-04-08T00:22:18.510Z,950.63
2018-04-08T00:23:18.497Z,950.6
2018-04-08T00:24:18.485Z,950.59
2018-04-08T00:25:18.474Z,950.58
2018-04-08T00:26:18.464Z,950.51
2018-04-08T00:27:18.452Z,950.53
2018-04-08T00:28:18.440Z,950.57
2018-04-08T00:29:18.430Z,950.54
2018-04-08T00:30:18.421Z,950.54
2018-04-08T00:31:18.406Z,950.46
2018-04-08T00:32:18.395Z,950.52
2018-04-08T00:33:18.385Z,950.49
2018-04-08T00:34:18.373Z,950.48
2018-04-08T00:35:18.361Z,950.45
2018-04-08T00:36:18.350Z,950.42
2018-04-08T00:37:18.339Z,950.42
2018-04-08T00:38:18.329Z,950.38
2018-04-08T00:39:18.317Z,950.44
2018-04-08T00:40:18.306Z,950.38
2018-04-08T00:41:18.295Z,950.27
2018-04-08T00:42:18.287Z,950.32
2018-04-08T00:43:18.272Z,950.3
2018-04-08T00:44:18.261Z,950.31
2018-04-08T00:45:18.250Z,950.35
2018-04-08T00:46:18.237Z,950.3
2018-04-08T00:47:18.228Z,950.36
2018-04-08T00:48:18.215Z,950.34
2018-04-08T00:49:18.208Z,950.36
2018-04-08T00:50:18.191Z,950.38
2018-04-08T00:51:18.183Z,950.3
2018-04-08T00:52:18.170Z,950.27
2018-04-08T00:53:18.159Z,950.25
2018-04-08T00:54:18.146Z,950.23
2018-04-08T00:55:18.139Z,950.24
2018-04-08T00:56:18.125Z,950.16
2018-04-08T00:57:18.114Z,950.21
2018-04-08T00:58:18.102Z,950.12
2018-04-08T00:59:18.091Z,950.11
2018-04-08T01:00:18.080Z,950.12
2018-04-08T01:01:18.068Z,950.06
2018-04-08T01:02:18.056Z,950.08
2018-04-08T01:03:18.044Z,950.14
2018-04-08T01:04:18.041Z,950.04
2018-04-08T01:05:18.023Z,950.04
2018-04-08T01:06:18.011Z,950.11
2018-04-08T01:07:17.999Z,950.13
2018-04-08T01:08:17.986Z,950.01
2018-04-08T01:09:17.976Z,950.05
2018-04-08T01:10:17.968Z,950.03
2018-04-08T01:11:17.954Z,950.07
2018-04-08T01:12:17.940Z,949.99
2018-04-08T01:13:17.929Z,950.05
2018-04-08T01:14:17.918Z,950.03
2018-04-08T01:15:17.906Z,950.03
2018-04-08T01:16:17.895Z,950
2018-04-08T01:17:17.884Z,949.92
2018-04-08T01:18:17.873Z,949.98
2018-04-08T01:19:17.860Z,949.91
2018-04-08T01:20:17.849Z,949.94
2018-04-08T01:21:17.837Z,949.88
2018-04-08T01:22:17.825Z,949.88
2018-04-08T01:23:17.815Z,949.83
2018-04-08T01:24:17.802Z,949.9
2018-04-08T01:25:17.791Z,949.9
2018-04-08T01:26:17.786Z,949.89
2018-04-08T01:27:17.768Z,949.94
2018-04-08T01:28:17.756Z,949.92
2018-04-08T01:29:17.748Z,949.9
2018-04-08T01:30:17.732Z,949.9
2018-04-08T01:31:17.720Z,949.94
2018-04-08T01:32:17.709Z,949.9
2018-04-08T01:33:17.697Z,949.95
2018-04-08T01:34:17.685Z,949.99
2018-04-08T01:35:17.672Z,949.91
2018-04-08T01:36:17.663Z,949.94
2018-04-08T01:37:17.650Z,949.9
2018-04-08T01:38:17.638Z,949.92
2018-04-08T01:39:17.627Z,949.95
2018-04-08T01:40:17.615Z,949.9
2018-04-08T01:41:17.602Z,949.93
2018-04-08T01:42:17.592Z,949.98
2018-04-08T01:43:17.580Z,949.88
2018-04-08T01:44:17.571Z,949.94
2018-04-08T01:45:17.556Z,949.94
2018-04-08T01:46:17.544Z,949.93
2018-04-08T01:47:17.538Z,949.91
2018-04-08T01:48:17.521Z,949.92
2018-04-08T01:49:17.510Z,949.88
2018-04-08T01:50:17.498Z,949.84
2018-04-08T01:51:17.486Z,949.83
2018-04-08T01:52:17.474Z,949.83
2018-04-08T01:53:17.462Z,949.85
2018-04-08T01:54:17.451Z,949.78
2018-04-08T01:55:17.438Z,949.78
2018-04-08T01:56:17.428Z,949.81
2018-04-08T01:57:17.414Z,949.73
2018-04-08T01:58:17.403Z,949.73
2018-04-08T01:59:17.391Z,949.74
2018-04-08T02:00:17.378Z,949.73
2018-04-08T02:01:17.367Z,949.68
2018-04-08T02:02:17.355Z,949.74
2018-04-08T02:03:17.344Z,949.72
2018-04-08T02:04:17.331Z,949.71
2018-04-08T02:05:17.320Z,949.71
2018-04-08T02:06:17.307Z,949.74
2018-04-08T02:07:17.296Z,949.74
2018-04-08T02:08:17.284Z,949.74
2018-04-08T02:09:17.273Z,949.77
2018-04-08T02:10:17.259Z,949.66
2018-04-08T02:11:17.249Z,949.65
2018-04-08T02:12:17.236Z,949.65
2018-04-08T02:13:17.224Z,949.75
2018-04-08T02:14:17.213Z,949.79
2018-04-08T02:15:17.201Z,949.78
2018-04-08T02:16:17.196Z,949.72
2018-04-08T02:17:17.176Z,949.72
2018-04-08T02:18:17.185Z,949.78
2018-04-08T02:19:17.153Z,949.76
2018-04-08T02:20:17.142Z,949.78
2018-04-08T02:21:17.130Z,949.69
2018-04-08T02:22:17.118Z,949.83
2018-04-08T02:23:17.106Z,949.77
2018-04-08T02:24:17.092Z,949.78
2018-04-08T02:25:17.081Z,949.72
2018-04-08T02:26:17.070Z,949.73
2018-04-08T02:27:17.058Z,949.69
2018-04-08T02:28:17.044Z,949.74
2018-04-08T02:29:17.033Z,949.74
2018-04-08T02:30:17.023Z,949.78
2018-04-08T02:31:17.011Z,949.76
2018-04-08T02:32:16.997Z,949.7
2018-04-08T02:33:16.986Z,949.7
2018-04-08T02:34:16.974Z,949.69
2018-04-08T02:35:16.964Z,949.71
2018-04-08T02:36:16.949Z,949.67
2018-04-08T02:37:16.939Z,949.65
2018-04-08T02:38:16.927Z,949.61
2018-04-08T02:39:16.913Z,949.58
2018-04-08T02:40:16.902Z,949.6
2018-04-08T02:41:16.896Z,949.61
2018-04-08T02:42:16.884Z,949.6
2018-04-08T02:43:16.866Z,949.57
2018-04-08T02:44:16.853Z,949.54
2018-04-08T02:45:16.844Z,949.56
2018-04-08T02:46:16.830Z,949.51
2018-04-08T02:47:16.818Z,949.51
2018-04-08T02:48:16.804Z,949.55
2018-04-08T02:49:16.794Z,949.53
2018-04-08T02:50:16.780Z,949.55
2018-04-08T02:51:16.770Z,949.54
2018-04-08T02:52:16.758Z,949.56
2018-04-08T02:53:16.754Z,949.65
2018-04-08T02:54:16.734Z,949.56
2018-04-08T02:55:16.721Z,949.63
2018-04-08T02:56:16.715Z,949.55
2018-04-08T02:57:16.710Z,949.54
2018-04-08T02:58:16.685Z,949.6
2018-04-08T02:59:16.674Z,949.58
2018-04-08T03:00:16.665Z,949.58
2018-04-08T03:01:16.650Z,949.56
2018-04-08T03:02:16.636Z,949.52
2018-04-08T03:03:16.626Z,949.54
2018-04-08T03:04:16.616Z,949.54
2018-04-08T03:05:16.601Z,949.49
2018-04-08T03:06:16.589Z,949.54
2018-04-08T03:07:16.578Z,949.5
2018-04-08T03:08:16.565Z,949.51
2018-04-08T03:09:16.559Z,949.47
2018-04-08T03:10:16.541Z,949.52
2018-04-08T03:11:16.535Z,949.46
2018-04-08T03:12:16.515Z,949.44
2018-04-08T03:13:16.504Z,949.42
2018-04-08T03:14:16.492Z,949.45
2018-04-08T03:15:16.480Z,949.46
2018-04-08T03:16:16.467Z,949.42
2018-04-08T03:17:16.455Z,949.47
2018-04-08T03:18:16.444Z,949.49
2018-04-08T03:19:16.432Z,949.5
2018-04-08T03:20:16.419Z,949.46
2018-04-08T03:21:16.408Z,949.45
2018-04-08T03:22:16.398Z,949.46
2018-04-08T03:23:16.383Z,949.43
2018-04-08T03:24:16.378Z,949.4
2018-04-08T03:25:16.359Z,949.41
2018-04-08T03:26:16.347Z,949.42
2018-04-08T03:27:16.334Z,949.38
2018-04-08T03:28:16.322Z,949.43
2018-04-08T03:29:16.309Z,949.44
2018-04-08T03:30:16.299Z,949.44
2018-04-08T03:31:16.287Z,949.45
2018-04-08T03:32:16.274Z,949.44
2018-04-08T03:33:16.262Z,949.41
2018-04-08T03:34:16.249Z,949.43
2018-04-08T03:35:16.237Z,949.41
2018-04-08T03:36:16.224Z,949.4
2018-04-08T03:37:16.213Z,949.38
2018-04-08T03:38:16.200Z,949.37
2018-04-08T03:39:16.188Z,949.36
2018-04-08T03:40:16.176Z,949.37
2018-04-08T03:41:16.163Z,949.33
2018-04-08T03:42:16.152Z,949.33
2018-04-08T03:43:16.141Z,949.28
2018-04-08T03:44:16.127Z,949.3
2018-04-08T03:45:16.113Z,949.31
2018-04-08T03:46:16.103Z,949.29
2018-04-08T03:47:16.091Z,949.32
2018-04-08T03:48:16.081Z,949.27
2018-04-08T03:49:16.066Z,949.29
2018-04-08T03:50:16.054Z,949.32
2018-04-08T03:51:16.043Z,949.31
2018-04-08T03:52:16.028Z,949.32
2018-04-08T03:53:16.017Z,949.28
2018-04-08T03:54:16.004Z,949.29
2018-04-08T03:55:15.993Z,949.3
2018-04-08T03:56:15.980Z,949.28
2018-04-08T03:57:15.967Z,949.31
2018-04-08T03:58:15.957Z,949.3
2018-04-08T03:59:15.944Z,949.28
2018-04-08T04:00:15.932Z,949.25
2018-04-08T04:01:15.920Z,949.22
2018-04-08T04:02:15.908Z,949.22
2018-04-08T04:03:15.894Z,949.23
2018-04-08T04:04:15.883Z,949.25
2018-04-08T04:05:15.870Z,949.22
2018-04-08T04:06:15.858Z,949.21
2018-04-08T04:07:15.846Z,949.24
2018-04-08T04:08:15.834Z,949.19
2018-04-08T04:09:15.822Z,949.2
2018-04-08T04:10:15.809Z,949.22
2018-04-08T04:11:15.796Z,949.22
2018-04-08T04:12:15.785Z,949.19
2018-04-08T04:13:15.772Z,949.22
2018-04-08T04:14:15.759Z,949.19
2018-04-08T04:15:15.748Z,949.18
2018-04-08T04:16:15.736Z,949.22
2018-04-08T04:17:15.768Z,949.21
2018-04-08T04:18:15.710Z,949.22
2018-04-08T04:19:15.702Z,949.21
2018-04-08T04:20:15.687Z,949.18
2018-04-08T04:21:15.677Z,949.19
2018-04-08T04:22:15.661Z,949.19
2018-04-08T04:23:15.649Z,949.23
2018-04-08T04:24:15.637Z,949.21
2018-04-08T04:25:15.625Z,949.24
2018-04-08T04:26:15.612Z,949.26
2018-04-08T04:27:15.600Z,949.21
2018-04-08T04:28:15.588Z,949.23
2018-04-08T04:29:15.578Z,949.2
2018-04-08T04:30:15.562Z,949.21
2018-04-08T04:31:15.551Z,949.25
2018-04-08T04:32:15.538Z,949.22
2018-04-08T04:33:15.526Z,949.24
2018-04-08T04:34:15.513Z,949.24
2018-04-08T04:35:15.501Z,949.25
2018-04-08T04:36:15.487Z,949.23
2018-04-08T04:37:15.475Z,949.26
2018-04-08T04:38:15.464Z,949.25
2018-04-08T04:39:15.452Z,949.24
2018-04-08T04:40:15.437Z,949.25
2018-04-08T04:41:15.427Z,949.23
2018-04-08T04:42:15.413Z,949.24
2018-04-08T04:43:15.401Z,949.21
2018-04-08T04:44:15.388Z,949.24
2018-04-08T04:45:15.376Z,949.2
2018-04-08T04:46:15.364Z,949.24
2018-04-08T04:47:15.351Z,949.17
2018-04-08T04:48:15.339Z,949.25
2018-04-08T04:49:15.327Z,949.26
2018-04-08T04:50:15.314Z,949.34
2018-04-08T04:51:15.348Z,949.27
2018-04-08T04:52:15.292Z,949.29
2018-04-08T04:53:15.281Z,949.3
2018-04-08T04:54:15.265Z,949.27
2018-04-08T04:55:15.253Z,949.25
2018-04-08T04:56:15.241Z,949.26
2018-04-08T04:57:15.228Z,949.21
2018-04-08T04:58:15.222Z,949.24
2018-04-08T04:59:15.204Z,949.21
2018-04-08T05:00:15.191Z,949.22
2018-04-08T05:01:15.178Z,949.2
2018-04-08T05:02:15.164Z,949.19
2018-04-08T05:03:15.154Z,949.24
2018-04-08T05:04:15.142Z,949.2
2018-04-08T05:05:15.129Z,949.2
2018-04-08T05:06:15.115Z,949.19
2018-04-08T05:07:15.103Z,949.16
2018-04-08T05:08:15.092Z,949.16
2018-04-08T05:09:15.078Z,949.16
2018-04-08T05:10:15.067Z,949.14
2018-04-08T05:11:15.054Z,949.15
2018-04-08T05:12:15.042Z,949.18
2018-04-08T05:13:15.051Z,949.19
2018-04-08T05:14:15.017Z,949.19
2018-04-08T05:15:15.004Z,949.15
2018-04-08T05:16:14.990Z,949.12
2018-04-08T05:17:14.979Z,949.15
2018-04-08T05:18:14.967Z,949.12
2018-04-08T05:19:14.958Z,949.15
2018-04-08T05:20:14.942Z,949.16
2018-04-08T05:21:14.935Z,949.12
2018-04-08T05:22:14.922Z,949.09
2018-04-08T05:23:14.905Z,949.12
2018-04-08T05:24:14.892Z,949.15
2018-04-08T05:25:14.884Z,949.14
2018-04-08T05:26:14.869Z,949.13
2018-04-08T05:27:14.855Z,949.13
2018-04-08T05:28:14.844Z,949.09
2018-04-08T05:29:14.831Z,949.12
2018-04-08T05:30:14.820Z,949.13
2018-04-08T05:31:14.806Z,949.11
2018-04-08T05:32:14.794Z,949.15
2018-04-08T05:33:14.782Z,949.11
2018-04-08T05:34:14.770Z,949.1
2018-04-08T05:35:14.757Z,949.1
2018-04-08T05:36:14.745Z,949.1
2018-04-08T05:37:14.733Z,949.04
2018-04-08T05:38:14.720Z,949.06
2018-04-08T05:39:14.708Z,949.05
2018-04-08T05:40:14.696Z,949.05
2018-04-08T05:41:14.684Z,949
2018-04-08T05:42:14.674Z,948.98
2018-04-08T05:43:14.659Z,949.01
2018-04-08T05:44:14.647Z,949
2018-04-08T05:45:14.636Z,949
2018-04-08T05:46:14.622Z,949.02
2018-04-08T05:47:14.612Z,949
2018-04-08T05:48:14.599Z,949.02
2018-04-08T05:49:14.585Z,949.06
2018-04-08T05:50:14.573Z,949.08
2018-04-08T05:51:14.562Z,949.1
2018-04-08T05:52:14.550Z,949.06
2018-04-08T05:53:14.543Z,949.13
2018-04-08T05:54:14.524Z,949.09
2018-04-08T05:55:14.514Z,949.08
2018-04-08T05:56:14.502Z,949.06
2018-04-08T05:57:14.494Z,949.15
2018-04-08T05:58:14.476Z,949.14
2018-04-08T05:59:14.464Z,949.08
2018-04-08T06:00:14.454Z,949.11
2018-04-08T06:01:14.440Z,949.09
2018-04-08T06:02:14.429Z,949.1
2018-04-08T06:03:14.417Z,949.05
2018-04-08T06:04:14.404Z,949.09
2018-04-08T06:05:14.392Z,949.07
2018-04-08T06:06:14.380Z,949.11
2018-04-08T06:07:14.369Z,949.08
2018-04-08T06:08:14.360Z,949.09
2018-04-08T06:09:14.353Z,949.07
2018-04-08T06:10:14.335Z,949.05
2018-04-08T06:11:14.322Z,949.03
2018-04-08T06:12:14.310Z,949.07
2018-04-08T06:13:14.297Z,949.06
2018-04-08T06:14:14.287Z,949.02
2018-04-08T06:15:14.274Z,949.02
2018-04-08T06:16:14.263Z,949
2018-04-08T06:17:14.250Z,948.99
2018-04-08T06:18:14.240Z,948.97
2018-04-08T06:19:14.228Z,949.03
2018-04-08T06:20:14.217Z,949.02
2018-04-08T06:21:14.205Z,949.02
2018-04-08T06:22:14.193Z,949.05
2018-04-08T06:23:14.181Z,949.04
2018-04-08T06:24:14.170Z,949.06
2018-04-08T06:25:14.158Z,949.05
2018-04-08T06:26:14.147Z,949.05
2018-04-08T06:27:14.134Z,949.02
2018-04-08T06:28:14.124Z,949.04
2018-04-08T06:29:14.112Z,949.02
2018-04-08T06:30:14.123Z,948.96
2018-04-08T06:31:14.091Z,949.01
2018-04-08T06:32:14.079Z,949.03
2018-04-08T06:33:14.067Z,949
2018-04-08T06:34:14.057Z,949.07
2018-04-08T06:35:14.044Z,949.07
2018-04-08T06:36:14.034Z,949.09
2018-04-08T06:37:14.023Z,949.08
2018-04-08T06:38:14.011Z,949.05
2018-04-08T06:39:14.000Z,949.01
2018-04-08T06:40:13.987Z,949.06
2018-04-08T06:41:13.979Z,949.03
2018-04-08T06:42:13.967Z,949.06
2018-04-08T06:43:13.957Z,949.08
2018-04-08T06:44:13.946Z,949.11
2018-04-08T06:45:13.935Z,949.15
2018-04-08T06:46:13.925Z,949.16
2018-04-08T06:47:13.914Z,949.14
2018-04-08T06:48:13.903Z,949.16
2018-04-08T06:49:13.895Z,949.16
2018-04-08T06:50:13.886Z,949.12
2018-04-08T06:51:13.877Z,949.18
2018-04-08T06:52:13.871Z,949.09
2018-04-08T06:53:13.858Z,949.09
2018-04-08T06:54:13.848Z,949.11
2018-04-08T06:55:13.840Z,949.14
2018-04-08T06:56:13.831Z,949.15
2018-04-08T06:57:13.823Z,949.14
2018-04-08T06:58:13.816Z,949.12
2018-04-08T06:59:13.807Z,949.16
2018-04-08T07:00:13.800Z,949.11
2018-04-08T07:01:13.792Z,949.18
2018-04-08T07:02:13.786Z,949.16
2018-04-08T07:03:13.779Z,949.17
2018-04-08T07:04:13.773Z,949.16
2018-04-08T07:05:13.770Z,949.2
2018-04-08T07:06:13.760Z,949.28
2018-04-08T07:07:13.755Z,949.27
2018-04-08T07:08:13.753Z,949.26
2018-04-08T07:09:13.745Z,949.32
2018-04-08T07:10:13.738Z,949.41
2018-04-08T07:11:13.734Z,949.47
2018-04-08T07:12:13.728Z,949.38
2018-04-08T07:13:13.724Z,949.1
2018-04-08T07:14:13.719Z,948.95
2018-04-08T07:15:13.715Z,948.98
2018-04-08T07:16:13.710Z,949.02
2018-04-08T07:17:13.705Z,948.97
2018-04-08T07:18:13.700Z,948.97
2018-04-08T07:19:13.696Z,948.98
2018-04-08T07:20:13.692Z,948.92
2018-04-08T07:21:13.685Z,948.95
2018-04-08T07:22:13.681Z,948.94
2018-04-08T07:23:13.677Z,948.98
2018-04-08T07:24:13.672Z,948.94
2018-04-08T07:25:13.668Z,948.96
2018-04-08T07:26:13.663Z,949.05
2018-04-08T07:27:13.660Z,949.02
2018-04-08T07:28:13.654Z,949.02
2018-04-08T07:29:13.649Z,949.03
2018-04-08T07:30:13.647Z,949
2018-04-08T07:31:13.641Z,949.04
2018-04-08T07:32:13.634Z,948.99
2018-04-08T07:33:13.630Z,949.03
2018-04-08T07:34:13.625Z,949.03
2018-04-08T07:35:13.619Z,949.03
2018-04-08T07:36:13.615Z,949.06
2018-04-08T07:37:13.609Z,949.03
2018-04-08T07:38:13.605Z,949.03
2018-04-08T07:39:13.599Z,949.05
2018-04-08T07:40:13.593Z,949.05
2018-04-08T07:41:13.588Z,949.09
2018-04-08T07:42:13.583Z,949.02
2018-04-08T07:43:13.577Z,949.04
2018-04-08T07:44:13.628Z,949.06
2018-04-08T07:45:13.568Z,949.08
2018-04-08T07:46:13.561Z,949.07
2018-04-08T07:47:13.557Z,949.07
2018-04-08T07:48:13.551Z,949.09
2018-04-08T07:49:13.546Z,949.08
2018-04-08T07:50:13.543Z,949.03
2018-04-08T07:51:13.534Z,949.01
2018-04-08T07:52:13.528Z,948.98
2018-04-08T07:53:13.524Z,948.95
2018-04-08T07:54:13.518Z,948.98
2018-04-08T07:55:13.511Z,948.99
2018-04-08T07:56:13.507Z,948.97
2018-04-08T07:57:13.501Z,948.96
2018-04-08T07:58:13.494Z,948.93
2018-04-08T07:59:13.493Z,948.99
2018-04-08T08:00:13.484Z,948.99
2018-04-08T08:01:13.478Z,949.02
2018-04-08T08:02:13.470Z,949.05
2018-04-08T08:03:13.467Z,949.03
2018-04-08T08:04:13.461Z,949.02
2018-04-08T08:05:13.458Z,949.01
2018-04-08T08:06:13.450Z,949
2018-04-08T08:07:13.445Z,949.03
2018-04-08T08:08:13.437Z,949.06
2018-04-08T08:09:13.432Z,949.04
2018-04-08T08:10:13.427Z,949.06
2018-04-08T08:11:13.428Z,949.04
2018-04-08T08:12:13.413Z,949.02
2018-04-08T08:13:13.409Z,949.02
2018-04-08T08:14:13.402Z,949.01
2018-04-08T08:15:13.396Z,949.03
2018-04-08T08:16:13.388Z,949.09
2018-04-08T08:17:13.384Z,949.05
2018-04-08T08:18:13.390Z,949.04
2018-04-08T08:19:13.371Z,949.05
2018-04-08T08:20:13.365Z,949.05
2018-04-08T08:21:13.359Z,949.06
2018-04-08T08:22:13.353Z,949.07
2018-04-08T08:23:13.347Z,949.07
2018-04-08T08:24:13.340Z,949.09
2018-04-08T08:25:13.344Z,949.04
2018-04-08T08:26:13.329Z,949.05
2018-04-08T08:27:13.322Z,949.09
2018-04-08T08:28:13.315Z,949.08
2018-04-08T08:29:13.310Z,949.01
2018-04-08T08:30:13.311Z,949.07
2018-04-08T08:31:13.296Z,949.07
2018-04-08T08:32:13.291Z,949.07
2018-04-08T08:33:13.284Z,949.09
2018-04-08T08:34:13.278Z,949.11
2018-04-08T08:35:13.271Z,949.12
2018-04-08T08:36:13.265Z,949.1
2018-04-08T08:37:13.258Z,949.14
2018-04-08T08:38:13.268Z,949.18
2018-04-08T08:39:13.246Z,949.2
2018-04-08T08:40:13.240Z,949.18
2018-04-08T08:41:13.233Z,949.12
2018-04-08T08:42:13.225Z,949.13
2018-04-08T08:43:13.222Z,949.14
2018-04-08T08:44:13.214Z,949.09
2018-04-08T08:45:13.205Z,949.12
2018-04-08T08:46:13.199Z,949.07
2018-04-08T08:47:13.193Z,949.04
2018-04-08T08:48:13.186Z,949.05
2018-04-08T08:49:13.235Z,949.08
2018-04-08T08:50:13.174Z,949.09
2018-04-08T08:51:13.168Z,949.14
2018-04-08T08:52:13.162Z,949.11
2018-04-08T08:53:13.156Z,949.09
2018-04-08T08:54:13.148Z,949.16
2018-04-08T08:55:13.143Z,949.16
2018-04-08T08:56:13.135Z,949.15
2018-04-08T08:57:13.130Z,949.16
2018-04-08T08:58:13.125Z,949.12
2018-04-08T08:59:13.121Z,949.1
2018-04-08T09:00:13.114Z,949.14
2018-04-08T09:01:13.105Z,949.12
2018-04-08T09:02:13.098Z,949.09
2018-04-08T09:03:13.092Z,949.08
2018-04-08T09:04:13.088Z,949.1
2018-04-08T09:05:13.081Z,949.09
2018-04-08T09:06:13.074Z,949.09
2018-04-08T09:07:13.068Z,949.03
2018-04-08T09:08:13.062Z,949.03
2018-04-08T09:09:13.058Z,949.02
2018-04-08T09:10:13.048Z,949
2018-04-08T09:11:13.043Z,948.99
2018-04-08T09:12:13.036Z,948.98
2018-04-08T09:13:13.032Z,948.98
2018-04-08T09:14:13.024Z,949
2018-04-08T09:15:13.019Z,948.98
2018-04-08T09:16:13.012Z,948.94
2018-04-08T09:17:13.005Z,948.95
2018-04-08T09:18:12.999Z,948.94
2018-04-08T09:19:12.994Z,948.93
2018-04-08T09:20:12.986Z,948.96
2018-04-08T09:21:12.981Z,948.95
2018-04-08T09:22:12.975Z,948.94
2018-04-08T09:23:12.970Z,948.89
2018-04-08T09:24:12.975Z,948.88
2018-04-08T09:25:12.958Z,948.95
2018-04-08T09:26:12.950Z,948.88
2018-04-08T09:27:12.945Z,948.89
2018-04-08T09:28:12.983Z,948.94
2018-04-08T09:29:12.933Z,948.92
2018-04-08T09:30:12.926Z,948.93
2018-04-08T09:31:12.921Z,948.93
2018-04-08T09:32:12.918Z,948.9
2018-04-08T09:33:12.908Z,949.01
2018-04-08T09:34:12.902Z,949
2018-04-08T09:35:12.899Z,948.99
2018-04-08T09:36:12.935Z,948.96
2018-04-08T09:37:12.886Z,949.04
2018-04-08T09:38:12.880Z,949.01
2018-04-08T09:39:12.875Z,949.04
2018-04-08T09:40:12.870Z,949.06
2018-04-08T09:41:12.865Z,949.03
2018-04-08T09:42:12.857Z,949.03
2018-04-08T09:43:12.856Z,948.98
2018-04-08T09:44:12.846Z,949
2018-04-08T09:45:12.842Z,948.98
2018-04-08T09:46:12.836Z,948.98
2018-04-08T09:47:12.832Z,948.98
2018-04-08T09:48:12.824Z,948.98
2018-04-08T09:49:12.819Z,949.01
2018-04-08T09:50:12.813Z,948.96
2018-04-08T09:51:12.807Z,948.98
2018-04-08T09:52:12.801Z,948.92
2018-04-08T09:53:12.796Z,948.94
2018-04-08T09:54:12.791Z,948.94
2018-04-08T09:55:12.785Z,948.95
2018-04-08T09:56:12.779Z,948.91
2018-04-08T09:57:12.776Z,948.92
2018-04-08T09:58:12.767Z,948.92
2018-04-08T09:59:12.762Z,948.91
2018-04-08T10:00:12.757Z,948.89
2018-04-08T10:01:12.751Z,948.87
2018-04-08T10:02:12.749Z,948.9
2018-04-08T10:03:12.741Z,948.86
2018-04-08T10:04:12.735Z,948.88
2018-04-08T10:05:12.729Z,948.85
2018-04-08T10:06:12.724Z,948.93
2018-04-08T10:07:12.718Z,948.89
2018-04-08T10:08:12.713Z,948.9
2018-04-08T10:09:12.709Z,948.92
2018-04-08T10:10:12.701Z,948.92
2018-04-08T10:11:12.696Z,948.92
2018-04-08T10:12:12.688Z,948.92
2018-04-08T10:13:12.684Z,948.83
2018-04-08T10:14:12.678Z,948.86
2018-04-08T10:15:12.674Z,948.87
2018-04-08T10:16:12.668Z,948.86
2018-04-08T10:17:12.661Z,948.89
2018-04-08T10:18:12.657Z,948.82
2018-04-08T10:19:12.651Z,948.82
2018-04-08T10:20:12.645Z,948.83
2018-04-08T10:21:12.645Z,948.73
2018-04-08T10:22:12.635Z,948.75
2018-04-08T10:23:12.630Z,948.73
2018-04-08T10:24:12.628Z,948.73
2018-04-08T10:25:12.619Z,948.7
2018-04-08T10:26:12.620Z,948.74
2018-04-08T10:27:12.606Z,948.75
2018-04-08T10:28:12.601Z,948.69
2018-04-08T10:29:12.675Z,948.69
2018-04-08T10:30:12.637Z,948.7
2018-04-08T10:31:12.585Z,948.64
2018-04-08T10:32:12.580Z,948.65
2018-04-08T10:33:12.574Z,948.68
2018-04-08T10:34:12.569Z,948.68
2018-04-08T10:35:12.569Z,948.64
2018-04-08T10:36:12.559Z,948.65
2018-04-08T10:37:12.553Z,948.64
2018-04-08T10:38:12.548Z,948.6
2018-04-08T10:39:12.543Z,948.65
2018-04-08T10:40:12.538Z,948.58
2018-04-08T10:41:12.533Z,948.63
2018-04-08T10:42:12.527Z,948.63
2018-04-08T10:43:12.522Z,948.6
2018-04-08T10:44:12.516Z,948.6
2018-04-08T10:45:12.511Z,948.58
2018-04-08T10:46:12.506Z,948.59
2018-04-08T10:47:12.502Z,948.62
2018-04-08T10:48:12.496Z,948.59
2018-04-08T10:49:12.489Z,948.54
2018-04-08T10:50:12.487Z,948.58
2018-04-08T10:51:12.480Z,948.6
2018-04-08T10:52:12.474Z,948.53
2018-04-08T10:53:12.470Z,948.47
2018-04-08T10:54:12.465Z,948.52
2018-04-08T10:55:12.460Z,948.48
2018-04-08T10:56:12.455Z,948.49
2018-04-08T10:57:12.449Z,948.46
2018-04-08T10:58:12.450Z,948.49
2018-04-08T10:59:12.441Z,948.49
2018-04-08T11:00:12.435Z,948.45
2018-04-08T11:01:12.429Z,948.47
2018-04-08T11:02:12.425Z,948.45
2018-04-08T11:03:12.421Z,948.47
2018-04-08T11:04:12.415Z,948.47
2018-04-08T11:05:12.410Z,948.43
2018-04-08T11:06:12.408Z,948.39
2018-04-08T11:07:12.398Z,948.37
2018-04-08T11:08:12.395Z,948.42
2018-04-08T11:09:12.440Z,948.37
2018-04-08T11:10:12.390Z,948.31
2018-04-08T11:11:12.379Z,948.36
2018-04-08T11:12:12.375Z,948.32
2018-04-08T11:13:12.370Z,948.32
2018-04-08T11:14:12.366Z,948.34
2018-04-08T11:15:12.361Z,948.34
2018-04-08T11:16:12.354Z,948.34
2018-04-08T11:17:12.357Z,948.31
2018-04-08T11:18:12.347Z,948.36
2018-04-08T11:19:12.340Z,948.34
2018-04-08T11:20:12.336Z,948.32
2018-04-08T11:21:12.332Z,948.32
2018-04-08T11:22:12.326Z,948.31
2018-04-08T11:23:12.321Z,948.28
2018-04-08T11:24:12.317Z,948.27
2018-04-08T11:25:12.313Z,948.28
2018-04-08T11:26:12.307Z,948.25
2018-04-08T11:27:12.301Z,948.26
2018-04-08T11:28:12.298Z,948.26
2018-04-08T11:29:12.292Z,948.24
2018-04-08T11:30:12.287Z,948.21
2018-04-08T11:31:12.284Z,948.18
2018-04-08T11:32:12.278Z,948.22
2018-04-08T11:33:12.273Z,948.15
2018-04-08T11:34:12.269Z,948.16
2018-04-08T11:35:12.265Z,948.2
2018-04-08T11:36:12.259Z,948.2
2018-04-08T11:37:12.254Z,948.17
2018-04-08T11:38:12.250Z,948.13
2018-04-08T11:39:12.244Z,948.13
2018-04-08T11:40:12.239Z,948.11
2018-04-08T11:41:12.261Z,948.07
2018-04-08T11:42:12.230Z,948.1
2018-04-08T11:43:12.224Z,948.1
2018-04-08T11:44:12.219Z,948.1
2018-04-08T11:45:12.215Z,948.04
2018-04-08T11:46:12.210Z,948.06
2018-04-08T11:47:12.225Z,948.03
2018-04-08T11:48:12.244Z,948.02
2018-04-08T11:49:12.194Z,948.01
2018-04-08T11:50:12.190Z,948
2018-04-08T11:51:12.186Z,948
2018-04-08T11:52:12.181Z,948.04
2018-04-08T11:53:12.181Z,948.04
2018-04-08T11:54:12.171Z,948.04
2018-04-08T11:55:12.165Z,948.07
2018-04-08T11:56:12.161Z,948.04
2018-04-08T11:57:12.157Z,948.04
2018-04-08T11:58:12.151Z,948.1
2018-04-08T11:59:12.146Z,948.05
2018-04-08T12:00:12.193Z,948.08
2018-04-08T12:01:12.138Z,948.05
2018-04-08T12:02:12.133Z,948.02
2018-04-08T12:03:12.127Z,947.99
2018-04-08T12:04:12.123Z,948.03
2018-04-08T12:05:12.118Z,947.98
2018-04-08T12:06:12.113Z,948.04
2018-04-08T12:07:12.108Z,948.03
2018-04-08T12:08:12.105Z,948.01
2018-04-08T12:09:12.098Z,948.05
2018-04-08T12:10:12.095Z,948.03
2018-04-08T12:11:12.088Z,948
2018-04-08T12:12:12.085Z,947.98
2018-04-08T12:13:12.078Z,947.98
2018-04-08T12:14:12.075Z,948.02
2018-04-08T12:15:12.070Z,948
2018-04-08T12:16:12.067Z,948
2018-04-08T12:17:12.059Z,948
2018-04-08T12:18:12.055Z,947.94
2018-04-08T12:19:12.050Z,947.9
2018-04-08T12:20:12.044Z,947.92
2018-04-08T12:21:12.039Z,947.92
2018-04-08T12:22:12.034Z,947.92
2018-04-08T12:23:12.033Z,947.89
2018-04-08T12:24:12.024Z,947.88
2018-04-08T12:25:12.019Z,947.92
2018-04-08T12:26:12.015Z,947.92
2018-04-08T12:27:12.010Z,947.91
2018-04-08T12:28:12.004Z,947.9
2018-04-08T12:29:11.998Z,947.93
2018-04-08T12:30:11.994Z,947.92
2018-04-08T12:31:11.991Z,947.95
2018-04-08T12:32:11.984Z,947.91